sensor_id;sensor_type;location;lat;lon;timestamp;temperature;humidity
19292;DHT22;9779;51.756;7.450;2024-02-16T00:00:25;10.90;1.00
19292;DHT22;9779;51.756;7.450;2024-02-16T00:02:51;10.90;1.00
19292;DHT22;9779;51.756;7.450;2024-02-16T00:05:17;10.90;1.00
19292;DHT22;9779;51.756;7.450;2024-02-16T00:07:43;10.80;1.00
19292;DHT22;9779;51.756;7.450;2024-02-16T00:10:09;10.90;1.00
19292;DHT22;9779;51.756;7.450;2024-02-16T00:12:35;10.80;1.00
19292;DHT22;9779;51.756;7.450;2024-02-16T00:15:02;10.80;1.00
19292;DHT22;9779;51.756;7.450;2024-02-16T00:17:28;10.80;1.00
19292;DHT22;9779;51.756;7.450;2024-02-16T00:19:55;10.80;1.00
19292;DHT22;9779;51.756;7.450;2024-02-16T00:22:24;10.80;1.00
19292;DHT22;9779;51.756;7.450;2024-02-16T00:24:50;10.80;1.00
19292;DHT22;9779;51.756;7.450;2024-02-16T00:27:16;10.80;1.00
19292;DHT22;9779;51.756;7.450;2024-02-16T00:29:42;10.80;1.00
19292;DHT22;9779;51.756;7.450;2024-02-16T00:32:08;10.80;1.00
19292;DHT22;9779;51.756;7.450;2024-02-16T00:34:34;10.80;1.00
19292;DHT22;9779;51.756;7.450;2024-02-16T00:37:00;10.80;1.00
19292;DHT22;9779;51.756;7.450;2024-02-16T00:39:26;10.70;1.00
19292;DHT22;9779;51.756;7.450;2024-02-16T00:41:52;10.80;1.00
19292;DHT22;9779;51.756;7.450;2024-02-16T00:44:18;10.70;1.00
19292;DHT22;9779;51.756;7.450;2024-02-16T00:46:47;10.70;1.00
19292;DHT22;9779;51.756;7.450;2024-02-16T00:49:12;10.70;1.00
19292;DHT22;9779;51.756;7.450;2024-02-16T00:51:39;10.70;1.00
19292;DHT22;9779;51.756;7.450;2024-02-16T00:54:05;10.70;1.00
19292;DHT22;9779;51.756;7.450;2024-02-16T00:56:32;10.60;1.00
19292;DHT22;9779;51.756;7.450;2024-02-16T00:58:58;10.60;1.00
19292;DHT22;9779;51.756;7.450;2024-02-16T01:01:24;10.60;1.00
19292;DHT22;9779;51.756;7.450;2024-02-16T01:03:52;10.70;1.00
19292;DHT22;9779;51.756;7.450;2024-02-16T01:06:18;10.60;1.00
19292;DHT22;9779;51.756;7.450;2024-02-16T01:08:43;10.60;1.00
19292;DHT22;9779;51.756;7.450;2024-02-16T01:11:09;10.60;1.00
19292;DHT22;9779;51.756;7.450;2024-02-16T01:13:35;10.60;1.00
19292;DHT22;9779;51.756;7.450;2024-02-16T01:16:01;10.70;1.00
19292;DHT22;9779;51.756;7.450;2024-02-16T01:18:28;10.70;1.00
19292;DHT22;9779;51.756;7.450;2024-02-16T01:20:54;10.70;1.00
19292;DHT22;9779;51.756;7.450;2024-02-16T01:23:20;10.70;1.00
19292;DHT22;9779;51.756;7.450;2024-02-16T01:25:46;10.70;1.00
19292;DHT22;9779;51.756;7.450;2024-02-16T01:28:12;10.70;1.00
19292;DHT22;9779;51.756;7.450;2024-02-16T01:30:39;10.70;1.00
19292;DHT22;9779;51.756;7.450;2024-02-16T01:33:05;10.70;1.00
19292;DHT22;9779;51.756;7.450;2024-02-16T01:35:34;10.70;1.00
19292;DHT22;9779;51.756;7.450;2024-02-16T01:38:00;10.70;1.00
19292;DHT22;9779;51.756;7.450;2024-02-16T01:40:29;10.80;1.00
19292;DHT22;9779;51.756;7.450;2024-02-16T01:42:55;10.70;1.00
19292;DHT22;9779;51.756;7.450;2024-02-16T01:45:21;10.70;1.00
19292;DHT22;9779;51.756;7.450;2024-02-16T01:47:48;10.70;1.00
19292;DHT22;9779;51.756;7.450;2024-02-16T01:50:16;10.70;1.00
19292;DHT22;9779;51.756;7.450;2024-02-16T01:52:46;10.70;1.00
19292;DHT22;9779;51.756;7.450;2024-02-16T01:55:13;10.70;1.00
19292;DHT22;9779;51.756;7.450;2024-02-16T01:57:46;10.70;1.00
19292;DHT22;9779;51.756;7.450;2024-02-16T02:00:13;10.70;1.00
19292;DHT22;9779;51.756;7.450;2024-02-16T02:02:40;10.70;1.00
19292;DHT22;9779;51.756;7.450;2024-02-16T02:05:06;10.70;1.00
19292;DHT22;9779;51.756;7.450;2024-02-16T02:07:32;10.70;1.00
19292;DHT22;9779;51.756;7.450;2024-02-16T02:09:58;10.60;1.00
19292;DHT22;9779;51.756;7.450;2024-02-16T02:12:24;10.60;1.00
19292;DHT22;9779;51.756;7.450;2024-02-16T02:14:50;10.60;1.00
19292;DHT22;9779;51.756;7.450;2024-02-16T02:17:16;10.60;1.00
19292;DHT22;9779;51.756;7.450;2024-02-16T02:19:42;10.60;1.00
19292;DHT22;9779;51.756;7.450;2024-02-16T02:22:20;10.60;1.00
19292;DHT22;9779;51.756;7.450;2024-02-16T02:24:47;10.60;1.00
19292;DHT22;9779;51.756;7.450;2024-02-16T02:27:14;10.60;1.00
19292;DHT22;9779;51.756;7.450;2024-02-16T02:29:40;10.60;1.00
19292;DHT22;9779;51.756;7.450;2024-02-16T02:32:07;10.50;1.00
19292;DHT22;9779;51.756;7.450;2024-02-16T02:34:32;10.50;1.00
19292;DHT22;9779;51.756;7.450;2024-02-16T02:36:58;10.60;1.00
19292;DHT22;9779;51.756;7.450;2024-02-16T02:39:24;10.60;1.00
19292;DHT22;9779;51.756;7.450;2024-02-16T02:41:50;10.60;1.00
19292;DHT22;9779;51.756;7.450;2024-02-16T02:44:15;10.70;1.00
19292;DHT22;9779;51.756;7.450;2024-02-16T02:46:41;10.60;1.00
19292;DHT22;9779;51.756;7.450;2024-02-16T02:49:06;10.70;1.00
19292;DHT22;9779;51.756;7.450;2024-02-16T02:51:33;10.70;1.00
19292;DHT22;9779;51.756;7.450;2024-02-16T02:53:59;10.70;1.00
19292;DHT22;9779;51.756;7.450;2024-02-16T02:56:24;10.70;1.00
19292;DHT22;9779;51.756;7.450;2024-02-16T02:58:50;10.70;99.90
19292;DHT22;9779;51.756;7.450;2024-02-16T03:01:16;10.70;99.90
19292;DHT22;9779;51.756;7.450;2024-02-16T03:03:41;10.70;99.90
19292;DHT22;9779;51.756;7.450;2024-02-16T03:06:08;10.80;1.00
19292;DHT22;9779;51.756;7.450;2024-02-16T03:08:35;10.80;99.90
19292;DHT22;9779;51.756;7.450;2024-02-16T03:11:00;10.80;99.90
19292;DHT22;9779;51.756;7.450;2024-02-16T03:13:26;10.90;1.00
19292;DHT22;9779;51.756;7.450;2024-02-16T03:15:52;10.90;1.00
19292;DHT22;9779;51.756;7.450;2024-02-16T03:18:18;10.90;1.00
19292;DHT22;9779;51.756;7.450;2024-02-16T03:20:45;10.90;1.00
19292;DHT22;9779;51.756;7.450;2024-02-16T03:23:13;10.90;1.00
19292;DHT22;9779;51.756;7.450;2024-02-16T03:25:39;10.90;1.00
19292;DHT22;9779;51.756;7.450;2024-02-16T03:28:05;11.00;99.90
19292;DHT22;9779;51.756;7.450;2024-02-16T03:30:33;11.00;99.90
19292;DHT22;9779;51.756;7.450;2024-02-16T03:32:59;11.00;1.00
19292;DHT22;9779;51.756;7.450;2024-02-16T03:35:25;11.00;1.00
19292;DHT22;9779;51.756;7.450;2024-02-16T03:37:51;11.00;1.00
19292;DHT22;9779;51.756;7.450;2024-02-16T03:40:16;11.00;1.00
19292;DHT22;9779;51.756;7.450;2024-02-16T03:42:43;11.10;99.90
19292;DHT22;9779;51.756;7.450;2024-02-16T03:45:09;11.10;99.90
19292;DHT22;9779;51.756;7.450;2024-02-16T03:47:35;11.00;99.90
19292;DHT22;9779;51.756;7.450;2024-02-16T03:50:01;11.10;99.90
19292;DHT22;9779;51.756;7.450;2024-02-16T03:52:27;11.10;99.90
19292;DHT22;9779;51.756;7.450;2024-02-16T03:54:52;11.10;99.90
19292;DHT22;9779;51.756;7.450;2024-02-16T03:57:18;11.00;1.00
19292;DHT22;9779;51.756;7.450;2024-02-16T03:59:44;11.10;99.90
19292;DHT22;9779;51.756;7.450;2024-02-16T04:02:10;11.10;99.90
19292;DHT22;9779;51.756;7.450;2024-02-16T04:04:36;11.10;54.80
19292;DHT22;9779;51.756;7.450;2024-02-16T04:07:02;11.10;53.80
19292;DHT22;9779;51.756;7.450;2024-02-16T04:09:27;11.10;99.90
19292;DHT22;9779;51.756;7.450;2024-02-16T04:11:53;11.10;21.00
19292;DHT22;9779;51.756;7.450;2024-02-16T04:14:18;11.10;93.30
19292;DHT22;9779;51.756;7.450;2024-02-16T04:16:44;11.10;99.90
19292;DHT22;9779;51.756;7.450;2024-02-16T04:19:10;11.10;99.90
19292;DHT22;9779;51.756;7.450;2024-02-16T04:21:36;11.10;99.90
19292;DHT22;9779;51.756;7.450;2024-02-16T04:24:02;11.00;1.00
19292;DHT22;9779;51.756;7.450;2024-02-16T04:26:28;11.00;1.00
19292;DHT22;9779;51.756;7.450;2024-02-16T04:28:54;11.00;99.90
19292;DHT22;9779;51.756;7.450;2024-02-16T04:31:20;11.00;99.90
19292;DHT22;9779;51.756;7.450;2024-02-16T04:33:45;11.00;99.90
19292;DHT22;9779;51.756;7.450;2024-02-16T04:36:11;11.00;1.00
19292;DHT22;9779;51.756;7.450;2024-02-16T04:38:36;11.00;1.00
19292;DHT22;9779;51.756;7.450;2024-02-16T04:41:04;11.00;1.00
19292;DHT22;9779;51.756;7.450;2024-02-16T04:43:30;11.00;1.00
19292;DHT22;9779;51.756;7.450;2024-02-16T04:45:56;11.00;1.00
19292;DHT22;9779;51.756;7.450;2024-02-16T04:48:21;11.00;1.00
19292;DHT22;9779;51.756;7.450;2024-02-16T04:50:47;11.00;1.00
19292;DHT22;9779;51.756;7.450;2024-02-16T04:53:12;10.90;1.00
19292;DHT22;9779;51.756;7.450;2024-02-16T04:55:38;11.00;1.00
19292;DHT22;9779;51.756;7.450;2024-02-16T04:58:04;11.00;99.90
19292;DHT22;9779;51.756;7.450;2024-02-16T05:00:36;10.90;1.00
19292;DHT22;9779;51.756;7.450;2024-02-16T05:03:02;11.00;99.90
19292;DHT22;9779;51.756;7.450;2024-02-16T05:05:28;11.00;99.90
19292;DHT22;9779;51.756;7.450;2024-02-16T05:07:53;11.00;1.00
19292;DHT22;9779;51.756;7.450;2024-02-16T05:10:19;11.00;1.00
19292;DHT22;9779;51.756;7.450;2024-02-16T05:12:45;10.90;1.00
19292;DHT22;9779;51.756;7.450;2024-02-16T05:15:11;10.90;1.00
19292;DHT22;9779;51.756;7.450;2024-02-16T05:17:39;10.90;1.00
19292;DHT22;9779;51.756;7.450;2024-02-16T05:20:09;10.90;1.00
19292;DHT22;9779;51.756;7.450;2024-02-16T05:22:39;10.90;1.00
19292;DHT22;9779;51.756;7.450;2024-02-16T05:25:04;10.90;1.00
19292;DHT22;9779;51.756;7.450;2024-02-16T05:27:30;10.90;1.00
19292;DHT22;9779;51.756;7.450;2024-02-16T05:29:56;10.90;1.00
19292;DHT22;9779;51.756;7.450;2024-02-16T05:32:21;10.90;99.90
19292;DHT22;9779;51.756;7.450;2024-02-16T05:34:47;10.90;99.90
19292;DHT22;9779;51.756;7.450;2024-02-16T05:37:13;10.80;99.90
19292;DHT22;9779;51.756;7.450;2024-02-16T05:39:40;10.80;99.90
19292;DHT22;9779;51.756;7.450;2024-02-16T05:42:20;10.80;99.90
19292;DHT22;9779;51.756;7.450;2024-02-16T05:44:47;10.80;99.90
19292;DHT22;9779;51.756;7.450;2024-02-16T05:47:13;10.80;99.90
19292;DHT22;9779;51.756;7.450;2024-02-16T05:49:39;10.70;99.90
19292;DHT22;9779;51.756;7.450;2024-02-16T05:52:05;10.70;99.90
19292;DHT22;9779;51.756;7.450;2024-02-16T05:54:49;10.70;99.90
19292;DHT22;9779;51.756;7.450;2024-02-16T05:57:15;10.70;99.90
19292;DHT22;9779;51.756;7.450;2024-02-16T05:59:41;10.70;99.90
19292;DHT22;9779;51.756;7.450;2024-02-16T06:02:07;10.70;99.90
19292;DHT22;9779;51.756;7.450;2024-02-16T06:04:34;10.70;43.50
19292;DHT22;9779;51.756;7.450;2024-02-16T06:06:59;10.70;69.00
19292;DHT22;9779;51.756;7.450;2024-02-16T06:09:26;10.70;99.90
19292;DHT22;9779;51.756;7.450;2024-02-16T06:11:51;10.70;99.90
19292;DHT22;9779;51.756;7.450;2024-02-16T06:14:17;10.70;99.90
19292;DHT22;9779;51.756;7.450;2024-02-16T06:16:43;10.80;36.50
19292;DHT22;9779;51.756;7.450;2024-02-16T06:19:08;10.80;33.20
19292;DHT22;9779;51.756;7.450;2024-02-16T06:21:35;10.80;40.60
19292;DHT22;9779;51.756;7.450;2024-02-16T06:24:01;10.90;1.00
19292;DHT22;9779;51.756;7.450;2024-02-16T06:26:27;10.90;99.90
19292;DHT22;9779;51.756;7.450;2024-02-16T06:28:52;10.90;99.90
19292;DHT22;9779;51.756;7.450;2024-02-16T06:31:18;10.90;99.90
19292;DHT22;9779;51.756;7.450;2024-02-16T06:33:43;10.90;99.90
19292;DHT22;9779;51.756;7.450;2024-02-16T06:36:09;11.00;99.90
19292;DHT22;9779;51.756;7.450;2024-02-16T06:38:36;11.00;99.90
19292;DHT22;9779;51.756;7.450;2024-02-16T06:41:02;11.00;99.90
19292;DHT22;9779;51.756;7.450;2024-02-16T06:43:29;11.00;99.90
19292;DHT22;9779;51.756;7.450;2024-02-16T06:45:54;11.00;99.90
19292;DHT22;9779;51.756;7.450;2024-02-16T06:48:22;11.00;99.90
19292;DHT22;9779;51.756;7.450;2024-02-16T06:50:48;11.00;99.90
19292;DHT22;9779;51.756;7.450;2024-02-16T06:53:13;11.10;99.90
19292;DHT22;9779;51.756;7.450;2024-02-16T06:55:39;11.20;99.90
19292;DHT22;9779;51.756;7.450;2024-02-16T06:58:04;11.20;99.90
19292;DHT22;9779;51.756;7.450;2024-02-16T07:00:30;11.10;99.90
19292;DHT22;9779;51.756;7.450;2024-02-16T07:02:55;11.20;99.90
19292;DHT22;9779;51.756;7.450;2024-02-16T07:05:21;11.20;1.00
19292;DHT22;9779;51.756;7.450;2024-02-16T07:07:47;11.40;1.00
19292;DHT22;9779;51.756;7.450;2024-02-16T07:10:12;11.40;99.90
19292;DHT22;9779;51.756;7.450;2024-02-16T07:12:39;11.40;99.90
19292;DHT22;9779;51.756;7.450;2024-02-16T07:15:06;11.40;99.90
19292;DHT22;9779;51.756;7.450;2024-02-16T07:17:31;11.40;99.90
19292;DHT22;9779;51.756;7.450;2024-02-16T07:19:57;11.40;1.00
19292;DHT22;9779;51.756;7.450;2024-02-16T07:22:22;11.40;99.90
19292;DHT22;9779;51.756;7.450;2024-02-16T07:24:48;11.40;1.00
19292;DHT22;9779;51.756;7.450;2024-02-16T07:27:14;11.40;1.00
19292;DHT22;9779;51.756;7.450;2024-02-16T07:29:39;11.50;1.00
19292;DHT22;9779;51.756;7.450;2024-02-16T07:32:05;11.50;1.00
19292;DHT22;9779;51.756;7.450;2024-02-16T07:34:31;11.50;1.00
19292;DHT22;9779;51.756;7.450;2024-02-16T07:36:56;11.50;99.90
19292;DHT22;9779;51.756;7.450;2024-02-16T07:39:22;11.60;99.90
19292;DHT22;9779;51.756;7.450;2024-02-16T07:41:49;11.60;99.90
19292;DHT22;9779;51.756;7.450;2024-02-16T07:44:14;11.70;99.90
19292;DHT22;9779;51.756;7.450;2024-02-16T07:46:43;11.70;99.90
19292;DHT22;9779;51.756;7.450;2024-02-16T07:49:11;11.70;99.90
19292;DHT22;9779;51.756;7.450;2024-02-16T07:51:37;11.70;99.90
19292;DHT22;9779;51.756;7.450;2024-02-16T07:54:03;11.80;99.90
19292;DHT22;9779;51.756;7.450;2024-02-16T07:56:29;11.90;99.90
19292;DHT22;9779;51.756;7.450;2024-02-16T07:58:56;11.80;99.90
19292;DHT22;9779;51.756;7.450;2024-02-16T08:01:21;11.90;99.90
19292;DHT22;9779;51.756;7.450;2024-02-16T08:03:47;11.90;99.90
19292;DHT22;9779;51.756;7.450;2024-02-16T08:06:13;11.90;99.90
19292;DHT22;9779;51.756;7.450;2024-02-16T08:08:39;12.00;99.90
19292;DHT22;9779;51.756;7.450;2024-02-16T08:11:05;12.00;99.90
19292;DHT22;9779;51.756;7.450;2024-02-16T08:13:31;12.10;99.90
19292;DHT22;9779;51.756;7.450;2024-02-16T08:15:56;12.10;58.90
19292;DHT22;9779;51.756;7.450;2024-02-16T08:18:22;12.20;99.90
19292;DHT22;9779;51.756;7.450;2024-02-16T08:20:47;12.20;61.60
19292;DHT22;9779;51.756;7.450;2024-02-16T08:23:13;12.30;99.90
19292;DHT22;9779;51.756;7.450;2024-02-16T08:25:39;12.30;26.70
19292;DHT22;9779;51.756;7.450;2024-02-16T08:28:04;12.40;1.00
19292;DHT22;9779;51.756;7.450;2024-02-16T08:30:30;12.40;1.00
19292;DHT22;9779;51.756;7.450;2024-02-16T08:32:56;12.50;1.00
19292;DHT22;9779;51.756;7.450;2024-02-16T08:35:23;12.50;1.00
19292;DHT22;9779;51.756;7.450;2024-02-16T08:37:49;12.50;1.00
19292;DHT22;9779;51.756;7.450;2024-02-16T08:40:15;12.50;99.90
19292;DHT22;9779;51.756;7.450;2024-02-16T08:42:43;12.50;99.90
19292;DHT22;9779;51.756;7.450;2024-02-16T08:45:09;12.50;1.00
19292;DHT22;9779;51.756;7.450;2024-02-16T08:47:35;12.60;99.90
19292;DHT22;9779;51.756;7.450;2024-02-16T08:50:01;12.60;99.90
19292;DHT22;9779;51.756;7.450;2024-02-16T08:52:26;12.60;99.90
19292;DHT22;9779;51.756;7.450;2024-02-16T08:54:52;12.70;80.20
19292;DHT22;9779;51.756;7.450;2024-02-16T08:57:17;12.70;99.90
19292;DHT22;9779;51.756;7.450;2024-02-16T08:59:43;12.60;99.90
19292;DHT22;9779;51.756;7.450;2024-02-16T09:02:10;12.70;34.70
19292;DHT22;9779;51.756;7.450;2024-02-16T09:04:35;12.70;17.40
19292;DHT22;9779;51.756;7.450;2024-02-16T09:07:02;12.80;1.00
19292;DHT22;9779;51.756;7.450;2024-02-16T09:09:28;12.80;1.00
19292;DHT22;9779;51.756;7.450;2024-02-16T09:11:54;12.80;1.00
19292;DHT22;9779;51.756;7.450;2024-02-16T09:14:19;12.90;1.00
19292;DHT22;9779;51.756;7.450;2024-02-16T09:16:48;12.90;1.00
19292;DHT22;9779;51.756;7.450;2024-02-16T09:19:13;12.90;1.00
19292;DHT22;9779;51.756;7.450;2024-02-16T09:21:39;13.00;99.90
19292;DHT22;9779;51.756;7.450;2024-02-16T09:24:05;13.10;96.80
19292;DHT22;9779;51.756;7.450;2024-02-16T09:26:36;13.10;95.70
19292;DHT22;9779;51.756;7.450;2024-02-16T09:29:02;13.10;1.00
19292;DHT22;9779;51.756;7.450;2024-02-16T09:31:28;13.20;1.00
19292;DHT22;9779;51.756;7.450;2024-02-16T09:33:53;13.30;99.90
19292;DHT22;9779;51.756;7.450;2024-02-16T09:36:19;13.30;1.00
19292;DHT22;9779;51.756;7.450;2024-02-16T09:38:45;13.40;99.90
19292;DHT22;9779;51.756;7.450;2024-02-16T09:41:11;13.40;99.90
19292;DHT22;9779;51.756;7.450;2024-02-16T09:43:37;13.40;1.00
19292;DHT22;9779;51.756;7.450;2024-02-16T09:46:04;13.40;29.30
19292;DHT22;9779;51.756;7.450;2024-02-16T09:48:30;13.40;28.60
19292;DHT22;9779;51.756;7.450;2024-02-16T09:50:57;13.50;1.00
19292;DHT22;9779;51.756;7.450;2024-02-16T09:53:25;13.40;37.10
19292;DHT22;9779;51.756;7.450;2024-02-16T09:55:52;13.50;1.00
19292;DHT22;9779;51.756;7.450;2024-02-16T09:58:18;13.60;99.90
19292;DHT22;9779;51.756;7.450;2024-02-16T10:00:53;13.60;1.00
19292;DHT22;9779;51.756;7.450;2024-02-16T10:03:30;13.60;1.00
19292;DHT22;9779;51.756;7.450;2024-02-16T10:06:11;13.80;99.90
19292;DHT22;9779;51.756;7.450;2024-02-16T10:08:51;13.70;1.00
19292;DHT22;9779;51.756;7.450;2024-02-16T10:11:20;13.70;99.90
19292;DHT22;9779;51.756;7.450;2024-02-16T10:14:00;13.90;1.00
19292;DHT22;9779;51.756;7.450;2024-02-16T10:16:26;13.80;1.00
19292;DHT22;9779;51.756;7.450;2024-02-16T10:19:05;13.80;1.00
19292;DHT22;9779;51.756;7.450;2024-02-16T10:21:31;13.80;1.00
19292;DHT22;9779;51.756;7.450;2024-02-16T10:24:07;13.90;1.00
19292;DHT22;9779;51.756;7.450;2024-02-16T10:26:37;13.90;1.00
19292;DHT22;9779;51.756;7.450;2024-02-16T10:29:05;13.90;1.00
19292;DHT22;9779;51.756;7.450;2024-02-16T10:31:31;14.00;1.00
19292;DHT22;9779;51.756;7.450;2024-02-16T10:33:59;14.00;1.00
19292;DHT22;9779;51.756;7.450;2024-02-16T10:36:26;14.00;1.00
19292;DHT22;9779;51.756;7.450;2024-02-16T10:38:55;14.00;1.00
19292;DHT22;9779;51.756;7.450;2024-02-16T10:41:27;14.00;1.00
19292;DHT22;9779;51.756;7.450;2024-02-16T10:43:54;14.10;1.00
19292;DHT22;9779;51.756;7.450;2024-02-16T10:46:21;14.10;99.90
19292;DHT22;9779;51.756;7.450;2024-02-16T10:48:47;14.10;99.90
19292;DHT22;9779;51.756;7.450;2024-02-16T10:51:13;14.10;99.90
19292;DHT22;9779;51.756;7.450;2024-02-16T10:53:41;14.10;99.90
19292;DHT22;9779;51.756;7.450;2024-02-16T10:56:07;14.20;99.90
19292;DHT22;9779;51.756;7.450;2024-02-16T10:58:34;14.20;99.90
19292;DHT22;9779;51.756;7.450;2024-02-16T11:01:09;14.20;99.90
19292;DHT22;9779;51.756;7.450;2024-02-16T11:03:38;14.20;99.90
19292;DHT22;9779;51.756;7.450;2024-02-16T11:06:17;14.20;99.90
19292;DHT22;9779;51.756;7.450;2024-02-16T11:08:43;14.20;99.90
19292;DHT22;9779;51.756;7.450;2024-02-16T11:11:09;14.20;99.90
19292;DHT22;9779;51.756;7.450;2024-02-16T11:13:38;14.30;99.90
19292;DHT22;9779;51.756;7.450;2024-02-16T11:16:08;14.30;99.90
19292;DHT22;9779;51.756;7.450;2024-02-16T11:18:38;14.40;1.00
19292;DHT22;9779;51.756;7.450;2024-02-16T11:21:05;14.40;99.90
19292;DHT22;9779;51.756;7.450;2024-02-16T11:23:34;14.40;99.90
19292;DHT22;9779;51.756;7.450;2024-02-16T11:28:28;14.40;94.30
19292;DHT22;9779;51.756;7.450;2024-02-16T11:30:56;14.50;68.20
19292;DHT22;9779;51.756;7.450;2024-02-16T11:33:21;14.50;99.90
19292;DHT22;9779;51.756;7.450;2024-02-16T11:36:04;14.50;99.90
19292;DHT22;9779;51.756;7.450;2024-02-16T11:38:31;14.50;99.90
19292;DHT22;9779;51.756;7.450;2024-02-16T11:41:04;14.50;99.90
19292;DHT22;9779;51.756;7.450;2024-02-16T11:43:30;14.50;99.90
19292;DHT22;9779;51.756;7.450;2024-02-16T11:45:58;14.50;99.90
19292;DHT22;9779;51.756;7.450;2024-02-16T11:48:25;14.50;99.90
19292;DHT22;9779;51.756;7.450;2024-02-16T11:50:59;14.60;99.90
19292;DHT22;9779;51.756;7.450;2024-02-16T11:53:25;14.50;99.90
19292;DHT22;9779;51.756;7.450;2024-02-16T11:55:51;14.50;99.90
19292;DHT22;9779;51.756;7.450;2024-02-16T11:58:17;14.50;1.00
19292;DHT22;9779;51.756;7.450;2024-02-16T12:00:45;14.40;1.00
19292;DHT22;9779;51.756;7.450;2024-02-16T12:03:11;14.40;1.00
19292;DHT22;9779;51.756;7.450;2024-02-16T12:05:37;14.40;1.00
19292;DHT22;9779;51.756;7.450;2024-02-16T12:08:06;14.40;1.00
19292;DHT22;9779;51.756;7.450;2024-02-16T12:10:31;14.40;1.00
19292;DHT22;9779;51.756;7.450;2024-02-16T12:12:58;14.40;1.00
19292;DHT22;9779;51.756;7.450;2024-02-16T12:15:23;14.40;1.00
19292;DHT22;9779;51.756;7.450;2024-02-16T12:17:58;14.30;99.90
19292;DHT22;9779;51.756;7.450;2024-02-16T12:20:26;14.30;1.00
19292;DHT22;9779;51.756;7.450;2024-02-16T12:22:52;14.30;1.00
19292;DHT22;9779;51.756;7.450;2024-02-16T12:25:17;14.20;99.90
19292;DHT22;9779;51.756;7.450;2024-02-16T12:27:43;14.20;1.00
19292;DHT22;9779;51.756;7.450;2024-02-16T12:30:09;14.30;1.00
19292;DHT22;9779;51.756;7.450;2024-02-16T12:32:34;14.20;99.90
19292;DHT22;9779;51.756;7.450;2024-02-16T12:35:00;14.20;1.00
19292;DHT22;9779;51.756;7.450;2024-02-16T12:37:26;14.20;99.90
19292;DHT22;9779;51.756;7.450;2024-02-16T12:39:51;14.20;1.00
19292;DHT22;9779;51.756;7.450;2024-02-16T12:42:17;14.20;1.00
19292;DHT22;9779;51.756;7.450;2024-02-16T12:44:42;14.20;1.00
19292;DHT22;9779;51.756;7.450;2024-02-16T12:47:08;14.20;1.00
19292;DHT22;9779;51.756;7.450;2024-02-16T12:49:33;14.20;1.00
19292;DHT22;9779;51.756;7.450;2024-02-16T12:52:01;14.20;1.00
19292;DHT22;9779;51.756;7.450;2024-02-16T12:54:26;14.20;78.10
19292;DHT22;9779;51.756;7.450;2024-02-16T12:56:52;14.20;99.90
19292;DHT22;9779;51.756;7.450;2024-02-16T12:59:19;14.20;99.90
19292;DHT22;9779;51.756;7.450;2024-02-16T13:01:44;14.10;99.90
19292;DHT22;9779;51.756;7.450;2024-02-16T13:04:11;14.10;99.90
19292;DHT22;9779;51.756;7.450;2024-02-16T13:06:38;14.10;99.90
19292;DHT22;9779;51.756;7.450;2024-02-16T13:09:03;14.10;1.00
19292;DHT22;9779;51.756;7.450;2024-02-16T13:11:30;14.10;1.00
19292;DHT22;9779;51.756;7.450;2024-02-16T13:13:55;14.10;1.00
19292;DHT22;9779;51.756;7.450;2024-02-16T13:16:21;14.10;99.90
19292;DHT22;9779;51.756;7.450;2024-02-16T13:18:47;14.10;1.00
19292;DHT22;9779;51.756;7.450;2024-02-16T13:21:12;14.10;1.00
19292;DHT22;9779;51.756;7.450;2024-02-16T13:23:38;14.10;1.00
19292;DHT22;9779;51.756;7.450;2024-02-16T13:26:04;14.10;1.00
19292;DHT22;9779;51.756;7.450;2024-02-16T13:28:30;14.10;1.00
19292;DHT22;9779;51.756;7.450;2024-02-16T13:30:55;14.10;1.00
19292;DHT22;9779;51.756;7.450;2024-02-16T13:33:21;14.10;56.10
19292;DHT22;9779;51.756;7.450;2024-02-16T13:35:47;14.10;99.90
19292;DHT22;9779;51.756;7.450;2024-02-16T13:38:12;14.00;1.00
19292;DHT22;9779;51.756;7.450;2024-02-16T13:40:39;14.00;1.00
19292;DHT22;9779;51.756;7.450;2024-02-16T13:43:05;13.90;1.00
19292;DHT22;9779;51.756;7.450;2024-02-16T13:45:51;13.80;1.00
19292;DHT22;9779;51.756;7.450;2024-02-16T13:48:17;13.70;10.00
19292;DHT22;9779;51.756;7.450;2024-02-16T13:50:49;13.60;99.90
19292;DHT22;9779;51.756;7.450;2024-02-16T13:53:16;13.50;99.90
19292;DHT22;9779;51.756;7.450;2024-02-16T13:55:42;13.50;99.90
19292;DHT22;9779;51.756;7.450;2024-02-16T13:58:12;13.40;99.90
19292;DHT22;9779;51.756;7.450;2024-02-16T14:00:38;13.40;99.90
19292;DHT22;9779;51.756;7.450;2024-02-16T14:03:09;13.40;99.90
19292;DHT22;9779;51.756;7.450;2024-02-16T14:05:38;13.40;99.90
19292;DHT22;9779;51.756;7.450;2024-02-16T14:08:05;13.30;99.90
19292;DHT22;9779;51.756;7.450;2024-02-16T14:10:31;13.30;99.90
19292;DHT22;9779;51.756;7.450;2024-02-16T14:13:00;13.30;99.90
19292;DHT22;9779;51.756;7.450;2024-02-16T14:15:25;13.30;99.90
19292;DHT22;9779;51.756;7.450;2024-02-16T14:17:51;13.20;99.90
19292;DHT22;9779;51.756;7.450;2024-02-16T14:20:17;13.20;99.90
19292;DHT22;9779;51.756;7.450;2024-02-16T14:22:42;13.20;99.90
19292;DHT22;9779;51.756;7.450;2024-02-16T14:25:10;13.10;99.90
19292;DHT22;9779;51.756;7.450;2024-02-16T14:27:36;13.10;99.90
19292;DHT22;9779;51.756;7.450;2024-02-16T14:30:03;13.00;99.90
19292;DHT22;9779;51.756;7.450;2024-02-16T14:32:29;13.00;99.90
19292;DHT22;9779;51.756;7.450;2024-02-16T14:34:55;13.10;99.90
19292;DHT22;9779;51.756;7.450;2024-02-16T14:37:20;12.90;99.90
19292;DHT22;9779;51.756;7.450;2024-02-16T14:39:46;12.90;99.90
19292;DHT22;9779;51.756;7.450;2024-02-16T14:42:12;12.90;99.90
19292;DHT22;9779;51.756;7.450;2024-02-16T14:44:37;12.90;99.90
19292;DHT22;9779;51.756;7.450;2024-02-16T14:47:03;12.80;99.90
19292;DHT22;9779;51.756;7.450;2024-02-16T14:49:29;12.80;99.90
19292;DHT22;9779;51.756;7.450;2024-02-16T14:51:56;12.80;99.90
19292;DHT22;9779;51.756;7.450;2024-02-16T14:54:23;12.80;99.90
19292;DHT22;9779;51.756;7.450;2024-02-16T14:56:51;12.80;99.90
19292;DHT22;9779;51.756;7.450;2024-02-16T14:59:18;12.80;99.90
19292;DHT22;9779;51.756;7.450;2024-02-16T15:01:44;12.70;99.90
19292;DHT22;9779;51.756;7.450;2024-02-16T15:04:09;12.70;99.90
19292;DHT22;9779;51.756;7.450;2024-02-16T15:06:35;12.70;99.90
19292;DHT22;9779;51.756;7.450;2024-02-16T15:09:01;12.70;99.90
19292;DHT22;9779;51.756;7.450;2024-02-16T15:11:31;12.70;99.90
19292;DHT22;9779;51.756;7.450;2024-02-16T15:13:56;12.80;99.90
19292;DHT22;9779;51.756;7.450;2024-02-16T15:16:22;12.80;99.90
19292;DHT22;9779;51.756;7.450;2024-02-16T15:18:48;12.70;99.90
19292;DHT22;9779;51.756;7.450;2024-02-16T15:21:13;12.70;99.90
19292;DHT22;9779;51.756;7.450;2024-02-16T15:23:39;12.70;99.90
19292;DHT22;9779;51.756;7.450;2024-02-16T15:26:04;12.70;99.90
19292;DHT22;9779;51.756;7.450;2024-02-16T15:28:33;12.70;99.90
19292;DHT22;9779;51.756;7.450;2024-02-16T15:30:59;12.70;99.90
19292;DHT22;9779;51.756;7.450;2024-02-16T15:33:24;12.60;99.90
19292;DHT22;9779;51.756;7.450;2024-02-16T15:35:50;12.60;99.90
19292;DHT22;9779;51.756;7.450;2024-02-16T15:38:16;12.60;99.90
19292;DHT22;9779;51.756;7.450;2024-02-16T15:40:42;12.70;99.90
19292;DHT22;9779;51.756;7.450;2024-02-16T15:43:08;12.70;99.90
19292;DHT22;9779;51.756;7.450;2024-02-16T15:45:36;12.70;99.90
19292;DHT22;9779;51.756;7.450;2024-02-16T15:48:09;12.70;99.90
19292;DHT22;9779;51.756;7.450;2024-02-16T15:50:36;12.60;99.90